createdAt,value
2019-03-27T00:00:59.399Z,75.47
2019-03-27T00:03:30.398Z,75.66
2019-03-27T00:06:01.573Z,75.09
2019-03-27T00:08:32.261Z,75.09
2019-03-27T00:11:02.787Z,75.37
2019-03-27T00:13:33.830Z,76.02
2019-03-27T00:16:04.356Z,76.22
2019-03-27T00:18:35.116Z,76.44
2019-03-27T00:21:05.870Z,76.44
2019-03-27T00:23:36.451Z,76.66
2019-03-27T00:26:07.480Z,76.26
2019-03-27T00:28:38.055Z,76.79
2019-03-27T00:31:11.640Z,76.79
2019-03-27T00:33:40.804Z,76.80
2019-03-27T00:36:11.092Z,77.30
2019-03-27T00:38:41.659Z,76.58
2019-03-27T00:41:12.205Z,76.48
2019-03-27T00:43:42.649Z,77.47
2019-03-27T00:46:13.303Z,77.47
2019-03-27T00:48:43.793Z,77.72
2019-03-27T00:51:14.141Z,77.72
2019-03-27T00:53:44.565Z,77.26
2019-03-27T00:56:15.351Z,76.72
2019-03-27T00:58:45.935Z,76.63
2019-03-27T01:01:16.877Z,76.34
2019-03-27T01:03:47.661Z,77.10
2019-03-27T01:06:18.193Z,76.79
2019-03-27T01:08:49.879Z,76.84
2019-03-27T01:11:20.420Z,76.84
2019-03-27T01:13:50.785Z,76.60
2019-03-27T01:16:21.261Z,76.48
2019-03-27T01:18:51.753Z,75.91
2019-03-27T01:21:22.565Z,76.27
2019-03-27T01:23:53.040Z,76.18
2019-03-27T01:26:23.629Z,76.18
2019-03-27T01:28:54.025Z,76.34
2019-03-27T01:31:24.609Z,76.01
2019-03-27T01:33:55.211Z,76.01
2019-03-27T01:36:25.853Z,76.31
2019-03-27T01:38:56.999Z,76.31
2019-03-27T01:41:27.463Z,76.08
2019-03-27T01:43:57.904Z,76.37
2019-03-27T01:46:28.509Z,77.19
2019-03-27T01:48:59.066Z,76.82
2019-03-27T01:51:30.063Z,77.56
2019-03-27T01:54:00.691Z,76.80
2019-03-27T01:56:31.232Z,76.80
2019-03-27T01:59:02.320Z,77.23
2019-03-27T02:01:33.019Z,77.37
2019-03-27T02:04:03.651Z,77.40
2019-03-27T02:06:34.116Z,77.78
2019-03-27T02:09:05.272Z,78.04
2019-03-27T02:11:36.336Z,78.04
2019-03-27T02:14:06.965Z,77.73
2019-03-27T02:16:37.625Z,77.98
2019-03-27T02:19:08.473Z,77.90
2019-03-27T02:21:39.030Z,77.95
2019-03-27T02:24:09.517Z,77.92
2019-03-27T02:26:39.993Z,77.92
2019-03-27T02:29:10.519Z,77.93
2019-03-27T02:31:41.245Z,78.19
2019-03-27T02:34:11.883Z,77.81
2019-03-27T02:36:42.381Z,78.73
2019-03-27T02:39:16.351Z,78.39
2019-03-27T02:41:47.046Z,78.21
2019-03-27T02:44:18.141Z,78.09
2019-03-27T02:46:48.611Z,77.78
2019-03-27T02:49:19.071Z,77.63
2019-03-27T02:51:49.567Z,77.63
2019-03-27T02:54:19.985Z,78.42
2019-03-27T02:56:50.618Z,78.82
2019-03-27T02:59:21.344Z,78.35
2019-03-27T03:01:52.002Z,78.23
2019-03-27T03:04:22.630Z,78.90
2019-03-27T03:06:53.062Z,79.36
2019-03-27T03:09:23.594Z,79.36
2019-03-27T03:11:53.948Z,79.22
2019-03-27T03:14:24.117Z,78.49
2019-03-27T03:16:54.958Z,78.49
2019-03-27T03:19:25.266Z,78.44
2019-03-27T03:21:55.919Z,78.18
2019-03-27T03:24:26.415Z,78.54
2019-03-27T03:26:56.844Z,79.40
2019-03-27T03:29:27.214Z,79.69
2019-03-27T03:31:57.670Z,79.69
2019-03-27T03:34:28.689Z,79.57
2019-03-27T03:36:59.141Z,79.57
2019-03-27T03:39:29.501Z,79.11
2019-03-27T03:42:00.622Z,79.85
2019-03-27T03:44:30.989Z,79.88
2019-03-27T03:47:01.263Z,80.26
2019-03-27T03:49:31.689Z,80.24
2019-03-27T03:52:01.893Z,80.05
2019-03-27T03:54:32.729Z,80.56
2019-03-27T03:57:03.053Z,80.80
2019-03-27T03:59:33.424Z,81.09
2019-03-27T04:02:04.920Z,81.09
2019-03-27T04:04:35.047Z,80.93
2019-03-27T04:07:05.250Z,80.33
2019-03-27T04:09:36.135Z,81.09
2019-03-27T04:12:06.843Z,81.09
2019-03-27T04:14:37.159Z,80.76
2019-03-27T04:17:17.066Z,81.28
2019-03-27T04:19:39.352Z,81.35
2019-03-27T04:22:10.016Z,81.71
2019-03-27T04:24:40.546Z,81.52
2019-03-27T04:27:10.669Z,81.52
2019-03-27T04:29:41.138Z,81.62
2019-03-27T04:32:11.547Z,81.51
2019-03-27T04:34:41.835Z,81.87
2019-03-27T04:37:12.121Z,81.87
2019-03-27T04:39:42.295Z,81.38
2019-03-27T04:42:13.140Z,82.16
2019-03-27T04:44:43.464Z,82.16
2019-03-27T04:47:14.030Z,81.21
2019-03-27T04:49:45.012Z,81.79
2019-03-27T04:52:18.362Z,81.97
2019-03-27T04:54:48.721Z,81.97
2019-03-27T04:57:20.010Z,81.18
2019-03-27T04:59:50.966Z,81.19
2019-03-27T05:02:21.432Z,81.52
2019-03-27T05:04:52.131Z,81.52
2019-03-27T05:07:23.217Z,81.89
2019-03-27T05:09:53.438Z,81.56
2019-03-27T05:12:23.661Z,81.83
2019-03-27T05:14:53.934Z,82.33
2019-03-27T05:17:24.199Z,82.86
2019-03-27T05:19:54.581Z,83.11
2019-03-27T05:22:27.972Z,83.11
2019-03-27T05:24:58.265Z,82.79
2019-03-27T05:27:28.733Z,82.81
2019-03-27T05:29:58.930Z,82.81
2019-03-27T05:32:29.371Z,82.49
2019-03-27T05:35:00.450Z,82.77
2019-03-27T05:37:31.013Z,82.60
2019-03-27T05:40:01.307Z,82.85
2019-03-27T05:42:31.685Z,82.58
2019-03-27T05:45:02.138Z,82.05
2019-03-27T05:47:32.388Z,82.05
2019-03-27T05:50:02.655Z,82.13
2019-03-27T05:52:32.965Z,82.42
2019-03-27T05:55:03.289Z,82.42
2019-03-27T05:57:33.938Z,81.76
2019-03-27T06:00:04.539Z,81.49
2019-03-27T06:02:38.696Z,81.54
2019-03-27T06:05:11.019Z,81.54
2019-03-27T06:07:43.679Z,81.77
2019-03-27T06:10:16.331Z,81.52
2019-03-27T06:12:46.363Z,81.52
2019-03-27T06:15:16.620Z,80.59
2019-03-27T06:17:46.937Z,80.59
2019-03-27T06:20:17.897Z,81.84
2019-03-27T06:22:48.252Z,81.84
2019-03-27T06:25:19.474Z,81.60
2019-03-27T06:27:49.951Z,82.08
2019-03-27T06:30:20.521Z,82.08
2019-03-27T06:32:50.931Z,81.81
2019-03-27T06:35:21.930Z,81.81
2019-03-27T06:37:52.614Z,83.35
2019-03-27T06:40:27.068Z,83.35
2019-03-27T06:42:57.363Z,82.03
2019-03-27T06:45:28.195Z,82.06
2019-03-27T06:47:58.389Z,83.02
2019-03-27T06:50:28.469Z,81.92
2019-03-27T06:53:01.533Z,82.37
2019-03-27T06:55:43.851Z,82.75
2019-03-27T06:58:14.292Z,82.75
2019-03-27T07:00:45.125Z,80.95
2019-03-27T07:03:15.652Z,80.95
2019-03-27T07:05:45.947Z,81.73
2019-03-27T07:08:16.452Z,81.73
2019-03-27T07:10:46.709Z,81.79
2019-03-27T07:13:18.333Z,81.79
2019-03-27T07:15:57.512Z,82.16
2019-03-27T07:19:27.636Z,81.91
2019-03-27T07:21:58.145Z,82.10
2019-03-27T07:24:28.387Z,82.10
2019-03-27T07:26:58.976Z,82.19
2019-03-27T07:29:29.175Z,82.07
2019-03-27T07:32:00.054Z,81.36
2019-03-27T07:34:30.642Z,81.36
2019-03-27T07:37:07.323Z,80.34
2019-03-27T07:39:37.892Z,80.45
2019-03-27T07:42:08.436Z,80.13
2019-03-27T07:44:38.914Z,79.54
2019-03-27T07:47:10.881Z,80.01
2019-03-27T07:49:41.700Z,80.03
2019-03-27T07:52:14.239Z,79.29
2019-03-27T07:54:44.890Z,79.29
2019-03-27T07:57:15.815Z,78.99
2019-03-27T07:59:46.167Z,77.36
2019-03-27T08:02:16.591Z,76.75
2019-03-27T08:04:47.184Z,76.75
2019-03-27T08:07:26.792Z,77.56
2019-03-27T08:09:51.144Z,76.31
2019-03-27T08:12:21.785Z,76.35
2019-03-27T08:14:52.113Z,76.14
2019-03-27T08:17:22.410Z,76.14
2019-03-27T08:19:52.895Z,75.72
2019-03-27T08:22:24.397Z,74.63
2019-03-27T08:24:55.134Z,73.80
2019-03-27T08:27:26.574Z,73.80
2019-03-27T08:29:57.743Z,73.99
2019-03-27T08:32:27.998Z,73.65
2019-03-27T08:35:00.699Z,73.65
2019-03-27T08:37:31.090Z,74.54
2019-03-27T08:40:01.397Z,74.20
2019-03-27T08:42:32.229Z,71.89
2019-03-27T08:45:06.362Z,70.00
2019-03-27T08:47:38.910Z,71.56
2019-03-27T08:50:10.452Z,70.25
2019-03-27T08:52:43.681Z,70.01
2019-03-27T08:55:14.885Z,70.09
2019-03-27T08:57:45.472Z,70.03
2019-03-27T09:00:16.425Z,70.18
2019-03-27T09:02:46.764Z,69.62
2019-03-27T09:05:17.259Z,69.62
2019-03-27T09:07:47.981Z,68.85
2019-03-27T09:10:18.532Z,68.84
2019-03-27T09:12:50.849Z,68.84
2019-03-27T09:15:26.314Z,69.44
2019-03-27T09:17:54.060Z,69.00
2019-03-27T09:20:24.387Z,69.00
2019-03-27T09:22:55.096Z,67.53
2019-03-27T09:25:26.005Z,64.25
2019-03-27T09:27:56.936Z,64.25
2019-03-27T09:30:27.594Z,64.02
2019-03-27T09:32:58.165Z,63.61
2019-03-27T09:35:28.563Z,62.68
2019-03-27T09:37:58.952Z,63.82
2019-03-27T09:40:29.333Z,62.48
2019-03-27T09:43:24.720Z,57.61
2019-03-27T09:45:55.114Z,59.18
2019-03-27T09:48:26.398Z,58.40
2019-03-27T09:50:57.190Z,56.83
2019-03-27T09:53:27.313Z,55.52
2019-03-27T09:55:57.622Z,59.13
2019-03-27T09:58:28.480Z,58.54
2019-03-27T10:01:00.671Z,56.75
2019-03-27T10:03:31.228Z,56.56
2019-03-27T10:06:01.700Z,56.91
2019-03-27T10:08:32.167Z,55.91
2019-03-27T10:11:03.184Z,55.91
2019-03-27T10:13:33.693Z,52.61
2019-03-27T10:16:04.586Z,52.61
2019-03-27T10:18:34.974Z,53.89
2019-03-27T10:21:05.130Z,54.49
2019-03-27T10:23:35.165Z,53.63
2019-03-27T10:26:05.639Z,53.54
2019-03-27T10:28:36.005Z,52.58
2019-03-27T10:31:08.027Z,51.58
2019-03-27T10:33:39.557Z,51.58
2019-03-27T10:36:10.504Z,52.54
2019-03-27T10:38:41.870Z,53.11
2019-03-27T10:41:16.474Z,51.54
2019-03-27T10:43:48.133Z,52.33
2019-03-27T10:46:18.214Z,52.69
2019-03-27T10:48:52.882Z,52.69
2019-03-27T10:51:20.788Z,53.05
2019-03-27T10:53:52.188Z,53.05
2019-03-27T10:56:22.675Z,53.56
2019-03-27T10:58:53.128Z,53.20
2019-03-27T11:01:23.333Z,52.90
2019-03-27T11:03:53.785Z,52.90
2019-03-27T11:06:25.855Z,52.08
2019-03-27T11:08:56.268Z,52.29
2019-03-27T11:11:29.771Z,51.73
2019-03-27T11:14:00.301Z,51.73
2019-03-27T11:16:30.797Z,52.05
2019-03-27T11:19:01.802Z,52.63
2019-03-27T11:21:34.393Z,52.63
2019-03-27T11:24:04.665Z,50.92
2019-03-27T11:26:34.871Z,50.92
2019-03-27T11:29:05.126Z,51.21
2019-03-27T11:31:35.213Z,53.27
2019-03-27T11:34:05.655Z,53.16
2019-03-27T11:36:36.150Z,54.38
2019-03-27T11:39:13.328Z,53.98
2019-03-27T11:41:46.260Z,53.98
2019-03-27T11:44:16.614Z,53.48
2019-03-27T11:46:47.155Z,53.55
2019-03-27T11:49:17.247Z,51.85
2019-03-27T11:51:48.156Z,51.85
2019-03-27T11:54:18.303Z,50.86
2019-03-27T11:56:52.558Z,49.91
2019-03-27T11:59:23.886Z,49.77
2019-03-27T12:02:02.027Z,49.94
2019-03-27T12:04:37.302Z,47.90
2019-03-27T12:07:07.653Z,47.55
2019-03-27T12:09:38.373Z,47.21
2019-03-27T12:12:09.234Z,47.31
2019-03-27T12:14:39.693Z,48.12
2019-03-27T12:17:10.095Z,48.12
2019-03-27T12:19:40.566Z,48.93
2019-03-27T12:22:10.770Z,48.93
2019-03-27T12:24:42.844Z,50.24
2019-03-27T12:27:12.994Z,50.24
2019-03-27T12:29:43.385Z,51.28
2019-03-27T12:32:16.388Z,51.56
2019-03-27T12:35:07.782Z,49.53
2019-03-27T12:37:41.280Z,49.53
2019-03-27T12:40:12.893Z,51.48
2019-03-27T12:42:43.158Z,50.67
2019-03-27T12:45:13.368Z,50.35
2019-03-27T12:47:43.806Z,49.44
2019-03-27T12:50:15.908Z,48.41
2019-03-27T12:52:46.438Z,49.19
2019-03-27T12:55:17.198Z,47.48
2019-03-27T12:57:47.418Z,47.48
2019-03-27T13:00:17.667Z,47.23
2019-03-27T13:02:48.671Z,47.21
2019-03-27T13:05:19.208Z,46.34
2019-03-27T13:07:50.559Z,48.70
2019-03-27T13:10:24.996Z,48.70
2019-03-27T13:12:55.962Z,49.25
2019-03-27T13:15:27.146Z,46.49
2019-03-27T13:18:01.062Z,46.68
2019-03-27T13:20:31.222Z,46.60
2019-03-27T13:23:01.416Z,46.50
2019-03-27T13:25:31.979Z,45.56
2019-03-27T13:28:02.595Z,46.66
2019-03-27T13:30:32.797Z,46.19
2019-03-27T13:33:03.742Z,46.35
2019-03-27T13:35:33.857Z,46.35
2019-03-27T13:38:03.979Z,45.86
2019-03-27T13:40:34.724Z,46.17
2019-03-27T13:43:05.236Z,45.50
2019-03-27T13:45:36.565Z,45.96
2019-03-27T13:48:06.784Z,47.91
2019-03-27T13:50:40.235Z,49.66
2019-03-27T13:53:11.047Z,49.91
2019-03-27T13:55:41.339Z,49.74
2019-03-27T13:58:11.498Z,49.74
2019-03-27T14:00:42.014Z,49.71
2019-03-27T14:03:13.458Z,49.75
2019-03-27T14:05:43.666Z,49.75
2019-03-27T14:08:14.533Z,50.05
2019-03-27T14:10:44.705Z,50.73
2019-03-27T14:13:16.703Z,50.68
2019-03-27T14:15:47.104Z,50.68
2019-03-27T14:18:19.074Z,50.51
2019-03-27T14:20:49.553Z,50.89
2019-03-27T14:23:20.241Z,50.67
2019-03-27T14:25:50.783Z,50.67
2019-03-27T14:28:21.733Z,50.89
2019-03-27T14:30:59.116Z,50.02
2019-03-27T14:33:29.292Z,50.26
2019-03-27T14:36:00.108Z,50.26
2019-03-27T14:38:40.572Z,50.43
2019-03-27T14:41:11.268Z,50.17
2019-03-27T14:43:43.906Z,50.17
2019-03-27T14:46:15.325Z,49.73
2019-03-27T14:48:45.709Z,47.99
2019-03-27T14:51:16.286Z,47.62
2019-03-27T14:53:46.672Z,48.11
2019-03-27T14:56:19.562Z,48.11
2019-03-27T14:58:53.779Z,48.87
2019-03-27T15:01:24.180Z,49.34
2019-03-27T15:03:57.515Z,49.21
2019-03-27T15:06:28.211Z,49.21
2019-03-27T15:09:07.103Z,49.11
2019-03-27T15:11:40.360Z,49.22
2019-03-27T15:14:14.027Z,49.22
2019-03-27T15:16:45.243Z,49.98
2019-03-27T15:19:18.225Z,50.04
2019-03-27T15:21:51.899Z,50.22
2019-03-27T15:24:22.094Z,50.22
2019-03-27T15:26:52.295Z,48.89
2019-03-27T15:29:25.207Z,48.89
2019-03-27T15:31:55.272Z,48.51
2019-03-27T15:34:25.631Z,48.74
2019-03-27T15:36:56.259Z,48.44
2019-03-27T15:39:26.358Z,49.60
2019-03-27T15:41:57.207Z,49.60
2019-03-27T15:44:28.355Z,48.90
2019-03-27T15:46:58.459Z,49.72
2019-03-27T15:49:30.778Z,49.72
2019-03-27T15:52:01.278Z,49.65
2019-03-27T15:54:31.757Z,50.22
2019-03-27T15:57:06.160Z,50.92
2019-03-27T15:59:35.101Z,50.95
2019-03-27T16:02:07.357Z,51.24
2019-03-27T16:04:38.921Z,51.24
2019-03-27T16:07:11.453Z,51.96
2019-03-27T16:09:42.252Z,52.37
2019-03-27T16:12:14.092Z,52.37
2019-03-27T16:14:45.185Z,52.89
2019-03-27T16:17:19.716Z,53.43
2019-03-27T16:19:50.149Z,53.43
2019-03-27T16:22:23.678Z,53.58
2019-03-27T16:24:59.538Z,53.65
2019-03-27T16:27:37.733Z,54.03
2019-03-27T16:30:08.485Z,54.03
2019-03-27T16:32:41.126Z,54.97
2019-03-27T16:35:13.119Z,54.97
2019-03-27T16:37:43.503Z,54.59
2019-03-27T16:40:13.915Z,54.97
2019-03-27T16:42:44.554Z,54.60
2019-03-27T16:45:15.371Z,54.83
2019-03-27T16:47:45.628Z,55.05
2019-03-27T16:50:36.387Z,55.05
2019-03-27T16:53:07.123Z,55.18
2019-03-27T16:55:39.146Z,55.56
2019-03-27T16:58:10.006Z,56.27
2019-03-27T17:00:42.437Z,56.37
2019-03-27T17:03:14.448Z,56.22
2019-03-27T17:05:53.969Z,57.14
2019-03-27T17:08:17.730Z,57.18
2019-03-27T17:10:48.656Z,57.38
2019-03-27T17:13:19.090Z,57.62
2019-03-27T17:15:53.732Z,57.84
2019-03-27T17:18:29.543Z,58.09
2019-03-27T17:21:05.507Z,57.82
2019-03-27T17:23:40.040Z,57.82
2019-03-27T17:26:10.515Z,58.02
2019-03-27T17:28:43.903Z,58.22
2019-03-27T17:31:13.971Z,58.31
2019-03-27T17:33:44.297Z,58.41
2019-03-27T17:36:14.755Z,58.14
2019-03-27T17:38:45.523Z,58.49
2019-03-27T17:41:15.790Z,58.45
2019-03-27T17:43:46.746Z,58.84
2019-03-27T17:46:19.350Z,58.73
2019-03-27T17:48:50.025Z,58.73
2019-03-27T17:51:20.149Z,58.61
2019-03-27T17:53:50.297Z,58.74
2019-03-27T17:56:23.670Z,59.17
2019-03-27T17:58:57.440Z,59.28
2019-03-27T18:01:33.651Z,59.65
2019-03-27T18:04:04.304Z,59.65
2019-03-27T18:06:35.050Z,60.31
2019-03-27T18:09:07.104Z,59.71
2019-03-27T18:11:37.996Z,59.51
2019-03-27T18:14:10.469Z,60.03
2019-03-27T18:16:40.800Z,60.03
2019-03-27T18:19:11.749Z,60.37
2019-03-27T18:21:42.151Z,60.30
2019-03-27T18:24:15.076Z,60.77
2019-03-27T18:26:45.728Z,60.77
2019-03-27T18:29:18.055Z,61.29
2019-03-27T18:31:48.967Z,61.36
2019-03-27T18:34:25.284Z,61.05
2019-03-27T18:36:55.926Z,61.05
2019-03-27T18:39:26.354Z,61.28
2019-03-27T18:41:57.304Z,61.66
2019-03-27T18:44:28.581Z,61.78
2019-03-27T18:47:03.401Z,61.78
2019-03-27T18:49:36.383Z,62.50
2019-03-27T18:52:07.295Z,62.50
2019-03-27T18:54:41.835Z,62.34
2019-03-27T18:57:12.459Z,62.34
2019-03-27T18:59:48.258Z,62.64
2019-03-27T19:02:20.093Z,63.25
2019-03-27T19:04:50.643Z,62.87
2019-03-27T19:07:21.287Z,62.87
2019-03-27T19:09:52.086Z,63.05
2019-03-27T19:12:22.334Z,62.81
2019-03-27T19:14:52.645Z,63.05
2019-03-27T19:17:22.983Z,62.78
2019-03-27T19:19:53.502Z,63.26
2019-03-27T19:22:24.026Z,63.45
2019-03-27T19:24:56.482Z,63.82
2019-03-27T19:27:26.974Z,63.82
2019-03-27T19:29:58.395Z,63.71
2019-03-27T19:32:28.745Z,63.26
2019-03-27T19:35:02.225Z,63.38
2019-03-27T19:37:33.047Z,63.38
2019-03-27T19:40:05.785Z,64.14
2019-03-27T19:42:36.730Z,64.02
2019-03-27T19:45:07.852Z,63.88
2019-03-27T19:47:38.489Z,63.54
2019-03-27T19:50:08.889Z,63.43
2019-03-27T19:52:39.835Z,63.43
2019-03-27T19:55:10.915Z,63.31
2019-03-27T19:57:44.508Z,63.31
2019-03-27T20:00:15.226Z,63.00
2019-03-27T20:02:45.422Z,63.61
2019-03-27T20:05:15.977Z,63.32
2019-03-27T20:07:46.424Z,63.32
2019-03-27T20:10:17.658Z,63.81
2019-03-27T20:12:47.906Z,63.08
2019-03-27T20:15:18.425Z,63.08
2019-03-27T20:17:49.132Z,63.55
2019-03-27T20:20:19.841Z,63.71
2019-03-27T20:22:52.658Z,63.49
2019-03-27T20:25:22.832Z,63.85
2019-03-27T20:27:54.106Z,63.85
2019-03-27T20:30:27.021Z,64.19
2019-03-27T20:32:57.764Z,63.94
2019-03-27T20:35:28.003Z,63.60
2019-03-27T20:38:04.618Z,63.72
2019-03-27T20:40:38.179Z,63.99
2019-03-27T20:43:11.666Z,63.94
2019-03-27T20:45:42.365Z,63.88
2019-03-27T20:48:12.562Z,63.88
2019-03-27T20:50:45.457Z,63.99
2019-03-27T20:53:16.090Z,63.99
2019-03-27T20:55:46.508Z,63.79
2019-03-27T20:58:16.710Z,64.29
2019-03-27T21:00:47.223Z,63.59
2019-03-27T21:03:17.367Z,63.44
2019-03-27T21:05:54.787Z,63.44
2019-03-27T21:08:28.579Z,63.83
2019-03-27T21:10:59.394Z,64.07
2019-03-27T21:13:31.031Z,64.31
2019-03-27T21:16:01.501Z,64.46
2019-03-27T21:18:34.470Z,64.46
2019-03-27T21:21:07.392Z,64.33
2019-03-27T21:23:38.307Z,64.33
2019-03-27T21:26:09.805Z,64.10
2019-03-27T21:28:53.840Z,64.54
2019-03-27T21:31:24.799Z,64.49
2019-03-27T21:33:57.893Z,64.49
2019-03-27T21:36:34.248Z,64.83
2019-03-27T21:39:06.582Z,64.69
2019-03-27T21:41:38.100Z,64.65
2019-03-27T21:44:09.082Z,65.12
2019-03-27T21:46:39.348Z,65.12
2019-03-27T21:49:09.597Z,64.90
2019-03-27T21:51:40.175Z,65.25
2019-03-27T21:54:10.822Z,65.49
2019-03-27T21:56:41.156Z,65.38
2019-03-27T21:59:13.954Z,65.38
2019-03-27T22:01:44.669Z,65.84
2019-03-27T22:04:15.141Z,65.69
2019-03-27T22:06:45.551Z,66.09
2019-03-27T22:09:16.015Z,65.80
2019-03-27T22:11:46.376Z,65.81
2019-03-27T22:14:16.808Z,65.81
2019-03-27T22:16:48.333Z,66.11
2019-03-27T22:19:18.958Z,66.31
2019-03-27T22:21:49.216Z,66.76
2019-03-27T22:24:19.516Z,66.46
2019-03-27T22:26:50.007Z,66.65
2019-03-27T22:29:20.465Z,66.75
2019-03-27T22:31:51.443Z,66.75
2019-03-27T22:34:23.008Z,67.00
2019-03-27T22:36:56.238Z,67.24
2019-03-27T22:39:26.206Z,67.35
2019-03-27T22:41:56.558Z,67.35
2019-03-27T22:44:27.465Z,67.45
2019-03-27T22:46:57.658Z,67.42
2019-03-27T22:49:28.305Z,67.94
2019-03-27T22:51:58.769Z,68.44
2019-03-27T22:54:29.220Z,67.88
2019-03-27T22:57:00.584Z,67.88
2019-03-27T22:59:30.836Z,67.93
2019-03-27T23:02:01.462Z,68.33
2019-03-27T23:04:32.363Z,68.33
2019-03-27T23:07:02.786Z,68.24
2019-03-27T23:09:33.236Z,68.03
2019-03-27T23:12:03.885Z,68.17
2019-03-27T23:14:34.190Z,68.17
2019-03-27T23:17:04.995Z,68.20
2019-03-27T23:19:35.323Z,68.38
2019-03-27T23:24:46.882Z,67.64
2019-03-27T23:27:17.531Z,68.26
2019-03-27T23:29:47.886Z,68.49
2019-03-27T23:32:18.120Z,67.84
2019-03-27T23:34:48.947Z,67.84
2019-03-27T23:37:19.247Z,68.24
2019-03-27T23:39:49.485Z,68.38
2019-03-27T23:42:20.125Z,69.22
2019-03-27T23:44:50.445Z,69.51
2019-03-27T23:47:20.471Z,69.51
2019-03-27T23:49:51.317Z,68.94
2019-03-27T23:52:21.460Z,69.64
2019-03-27T23:54:52.259Z,69.65
2019-03-27T23:57:22.472Z,69.65
2019-03-27T23:59:52.658Z,69.79
